createdAt,value
2019-01-21T00:02:20.346Z,52.27
2019-01-21T00:04:51.617Z,48.07
2019-01-21T00:07:24.523Z,53.30
2019-01-21T00:09:55.335Z,56.03
2019-01-21T00:12:26.640Z,54.97
2019-01-21T00:15:00.595Z,53.23
2019-01-21T00:17:31.731Z,51.47
2019-01-21T00:20:05.367Z,55.67
2019-01-21T00:22:35.695Z,64.37
2019-01-21T00:25:09.306Z,56.63
2019-01-21T00:27:39.862Z,53.70
2019-01-21T00:30:13.206Z,61.53
2019-01-21T00:32:43.443Z,59.77
2019-01-21T00:35:18.163Z,66.27
2019-01-21T00:37:48.557Z,64.83
2019-01-21T00:40:20.299Z,65.67
2019-01-21T00:42:50.444Z,65.43
2019-01-21T00:45:20.882Z,59.37
2019-01-21T00:47:51.804Z,60.10
2019-01-21T00:50:22.234Z,61.17
2019-01-21T00:52:52.962Z,65.63
2019-01-21T00:55:22.840Z,66.13
2019-01-21T00:57:53.308Z,60.23
2019-01-21T01:00:25.051Z,67.93
2019-01-21T01:02:56.561Z,75.43
2019-01-21T01:05:31.163Z,61.57
2019-01-21T01:08:02.665Z,63.00
2019-01-21T01:10:34.718Z,63.73
2019-01-21T01:13:04.713Z,65.40
2019-01-21T01:15:35.077Z,69.20
2019-01-21T01:18:05.041Z,69.10
2019-01-21T01:20:37.980Z,60.20
2019-01-21T01:23:07.906Z,66.30
2019-01-21T01:25:38.091Z,63.07
2019-01-21T01:28:08.680Z,70.03
2019-01-21T01:30:41.692Z,68.00
2019-01-21T01:33:12.470Z,71.23
2019-01-21T01:35:42.880Z,78.27
2019-01-21T01:38:12.801Z,67.23
2019-01-21T01:40:44.329Z,77.07
2019-01-21T01:43:16.856Z,77.07
2019-01-21T01:45:47.719Z,73.73
2019-01-21T01:48:18.256Z,70.40
2019-01-21T01:50:52.322Z,73.87
2019-01-21T01:53:22.583Z,71.57
2019-01-21T01:55:55.443Z,72.70
2019-01-21T01:58:26.531Z,70.13
2019-01-21T02:00:59.673Z,74.93
2019-01-21T02:03:29.573Z,73.50
2019-01-21T02:06:00.176Z,70.13
2019-01-21T02:08:31.316Z,78.33
2019-01-21T02:11:03.381Z,77.87
2019-01-21T02:13:33.770Z,70.20
2019-01-21T02:16:04.036Z,72.43
2019-01-21T02:18:35.480Z,73.03
2019-01-21T02:21:09.292Z,75.03
2019-01-21T02:23:39.819Z,72.47
2019-01-21T02:26:10.904Z,79.40
2019-01-21T02:28:47.973Z,74.17
2019-01-21T02:31:37.672Z,83.20
2019-01-21T02:34:27.541Z,79.03
2019-01-21T02:37:13.296Z,92.63
2019-01-21T02:40:19.372Z,82.07
2019-01-21T02:43:11.343Z,90.03
2019-01-21T02:46:00.845Z,82.87
2019-01-21T02:48:59.979Z,97.47
2019-01-21T02:51:51.587Z,95.37
2019-01-21T02:54:33.265Z,90.57
2019-01-21T02:57:15.644Z,91.83
2019-01-21T02:59:51.969Z,98.00
2019-01-21T03:02:44.021Z,90.13
2019-01-21T03:05:25.972Z,113.07
2019-01-21T03:08:05.055Z,104.10
2019-01-21T03:10:51.950Z,101.43
2019-01-21T03:13:25.179Z,109.87
2019-01-21T03:16:10.827Z,110.50
2019-01-21T03:19:12.778Z,110.40
2019-01-21T03:22:11.793Z,113.73
2019-01-21T03:25:08.376Z,99.50
2019-01-21T03:27:59.357Z,110.83
2019-01-21T03:30:38.512Z,94.57
2019-01-21T03:33:27.622Z,114.77
2019-01-21T03:36:35.245Z,99.20
2019-01-21T03:39:31.080Z,102.80
2019-01-21T03:42:16.175Z,110.67
2019-01-21T03:45:21.746Z,111.37
2019-01-21T03:47:56.379Z,106.33
2019-01-21T03:50:47.821Z,123.63
2019-01-21T03:53:33.901Z,117.97
2019-01-21T03:56:09.895Z,113.40
2019-01-21T03:59:05.437Z,107.77
2019-01-21T04:01:46.899Z,106.67
2019-01-21T04:04:35.370Z,118.87
2019-01-21T04:07:10.456Z,119.20
2019-01-21T04:09:49.750Z,110.73
2019-01-21T04:12:31.872Z,108.93
2019-01-21T04:15:14.071Z,115.77
2019-01-21T04:17:47.535Z,120.83
2019-01-21T04:20:48.350Z,116.03
2019-01-21T04:23:27.994Z,121.10
2019-01-21T04:26:02.647Z,123.53
2019-01-21T04:28:54.670Z,130.97
2019-01-21T04:31:34.161Z,118.40
2019-01-21T04:34:07.575Z,117.53
2019-01-21T04:36:58.326Z,128.70
2019-01-21T04:39:46.782Z,124.17
2019-01-21T04:42:29.364Z,120.77
2019-01-21T04:45:05.706Z,130.03
2019-01-21T04:47:51.140Z,122.57
2019-01-21T04:50:59.702Z,118.30
2019-01-21T04:57:00.810Z,115.87
2019-01-21T05:00:28.851Z,120.83
2019-01-21T05:03:14.254Z,114.23
2019-01-21T05:05:45.582Z,123.63
2019-01-21T05:08:45.796Z,119.07
2019-01-21T05:11:30.744Z,123.77
2019-01-21T05:14:15.634Z,113.83
2019-01-21T05:17:09.976Z,112.43
2019-01-21T05:19:48.917Z,110.83
2019-01-21T05:22:22.939Z,126.93
2019-01-21T05:25:23.903Z,109.20
2019-01-21T05:28:06.911Z,113.57
2019-01-21T05:30:51.009Z,103.97
2019-01-21T05:33:36.496Z,107.80
2019-01-21T05:36:15.788Z,110.27
2019-01-21T05:39:04.132Z,110.97
2019-01-21T05:41:57.070Z,110.17
2019-01-21T05:44:36.002Z,102.60
2019-01-21T05:47:25.644Z,115.83
2019-01-21T05:50:12.368Z,112.03
2019-01-21T05:52:57.492Z,110.23
2019-01-21T05:55:42.139Z,101.03
2019-01-21T05:58:33.515Z,103.23
2019-01-21T06:01:09.480Z,96.53
2019-01-21T06:03:42.480Z,96.73
2019-01-21T06:06:24.491Z,89.23
2019-01-21T06:09:04.052Z,105.13
2019-01-21T06:11:58.623Z,106.97
2019-01-21T06:15:06.687Z,109.47
2019-01-21T06:17:52.183Z,92.23
2019-01-21T06:20:28.231Z,99.13
2019-01-21T06:23:04.453Z,98.40
2019-01-21T06:25:47.743Z,97.47
2019-01-21T06:28:38.833Z,99.07
2019-01-21T06:31:18.261Z,97.30
2019-01-21T06:34:01.821Z,86.17
2019-01-21T06:37:07.547Z,102.67
2019-01-21T06:40:16.060Z,101.17
2019-01-21T06:43:30.663Z,99.43
2019-01-21T06:46:06.635Z,95.60
2019-01-21T06:49:04.720Z,90.00
2019-01-21T06:51:52.842Z,105.93
2019-01-21T06:54:52.843Z,89.57
2019-01-21T06:57:56.998Z,99.67
2019-01-21T07:00:36.408Z,90.43
2019-01-21T07:03:19.144Z,99.03
2019-01-21T07:06:18.070Z,88.33
2019-01-21T07:09:17.512Z,81.23
2019-01-21T07:11:55.259Z,86.17
2019-01-21T07:14:45.569Z,87.27
2019-01-21T07:17:44.445Z,86.10
2019-01-21T07:20:39.502Z,80.63
2019-01-21T07:23:23.778Z,111.95
2019-01-21T07:26:09.167Z,87.57
2019-01-21T07:28:59.996Z,86.43
2019-01-21T07:31:41.752Z,78.37
2019-01-21T07:34:20.807Z,92.07
2019-01-21T07:37:00.235Z,84.67
2019-01-21T07:43:09.012Z,83.63
2019-01-21T07:45:52.586Z,90.77
2019-01-21T07:48:32.837Z,86.80
2019-01-21T07:51:17.264Z,76.33
2019-01-21T07:53:57.993Z,78.37
2019-01-21T07:57:00.909Z,84.77
2019-01-21T07:59:40.527Z,82.77
2019-01-21T08:02:20.481Z,79.00
2019-01-21T08:05:08.390Z,82.20
2019-01-21T08:08:02.317Z,70.87
2019-01-21T08:10:41.476Z,95.92
2019-01-21T08:13:29.496Z,82.93
2019-01-21T08:16:35.787Z,73.80
2019-01-21T08:19:34.759Z,70.73
2019-01-21T08:22:25.916Z,71.77
2019-01-21T08:25:08.368Z,74.43
2019-01-21T08:27:50.206Z,64.27
2019-01-21T08:30:40.832Z,76.03
2019-01-21T08:33:16.599Z,88.50
2019-01-21T08:35:55.480Z,73.13
2019-01-21T08:38:40.420Z,72.20
2019-01-21T08:41:28.626Z,77.40
2019-01-21T08:44:19.969Z,72.03
2019-01-21T08:47:05.018Z,70.37
2019-01-21T08:49:38.198Z,73.50
2019-01-21T08:52:23.489Z,73.57
2019-01-21T08:54:56.794Z,69.13
2019-01-21T08:58:04.602Z,68.13
2019-01-21T09:00:55.994Z,68.03
2019-01-21T09:03:48.657Z,66.93
2019-01-21T09:06:40.175Z,74.23
2019-01-21T09:09:16.103Z,68.20
2019-01-21T09:12:08.952Z,83.87
2019-01-21T09:15:10.688Z,68.73
2019-01-21T09:17:46.339Z,80.33
2019-01-21T09:20:22.832Z,68.93
2019-01-21T09:23:05.248Z,68.00
2019-01-21T09:25:44.991Z,69.80
2019-01-21T09:28:27.522Z,66.60
2019-01-21T09:31:12.863Z,67.30
2019-01-21T09:33:48.833Z,67.07
2019-01-21T09:36:39.584Z,70.10
2019-01-21T09:39:25.157Z,76.67
2019-01-21T09:42:18.074Z,72.53
2019-01-21T09:45:00.013Z,64.63
2019-01-21T09:47:29.074Z,65.70
2019-01-21T09:49:59.092Z,62.17
2019-01-21T09:52:29.176Z,70.47
2019-01-21T09:54:59.330Z,71.77
2019-01-21T09:57:29.642Z,71.70
2019-01-21T09:59:59.926Z,69.00
2019-01-21T10:02:33.336Z,73.10
2019-01-21T10:05:03.342Z,70.87
2019-01-21T10:07:36.865Z,72.33
2019-01-21T10:10:16.171Z,71.50
2019-01-21T10:13:16.814Z,76.37
2019-01-21T10:16:09.505Z,69.40
2019-01-21T10:18:45.125Z,75.43
2019-01-21T10:21:23.786Z,78.03
2019-01-21T10:24:06.085Z,74.50
2019-01-21T10:26:56.119Z,78.33
2019-01-21T10:29:42.446Z,76.00
2019-01-21T10:32:31.056Z,80.47
2019-01-21T10:35:13.846Z,64.90
2019-01-21T10:37:53.174Z,72.40
2019-01-21T10:40:36.168Z,70.17
2019-01-21T10:43:12.993Z,76.00
2019-01-21T10:46:04.652Z,80.40
2019-01-21T10:48:49.528Z,73.10
2019-01-21T10:51:26.098Z,73.10
2019-01-21T10:53:59.935Z,72.23
2019-01-21T10:56:39.377Z,70.27
2019-01-21T10:59:43.059Z,79.83
2019-01-21T11:02:38.317Z,69.80
2019-01-21T11:05:24.456Z,71.13
2019-01-21T11:08:21.481Z,67.33
2019-01-21T11:11:04.219Z,69.97
2019-01-21T11:13:44.373Z,75.67
2019-01-21T11:16:17.586Z,74.77
2019-01-21T11:18:53.966Z,79.80
2019-01-21T11:21:27.320Z,80.10
2019-01-21T11:24:26.161Z,73.60
2019-01-21T11:27:11.945Z,79.00
2019-01-21T11:30:02.261Z,83.17
2019-01-21T11:32:51.210Z,75.10
2019-01-21T11:35:33.428Z,83.13
2019-01-21T11:38:18.893Z,79.47
2019-01-21T11:41:04.541Z,76.27
2019-01-21T11:43:40.779Z,75.97
2019-01-21T11:46:24.101Z,72.30
2019-01-21T11:49:04.584Z,70.37
2019-01-21T11:51:40.609Z,75.90
2019-01-21T11:54:22.838Z,75.73
2019-01-21T11:57:13.983Z,76.37
2019-01-21T11:59:49.670Z,79.30
2019-01-21T12:02:22.747Z,96.33
2019-01-21T12:05:01.438Z,80.10
2019-01-21T12:07:59.042Z,73.80
2019-01-21T12:10:48.530Z,79.27
2019-01-21T12:13:36.838Z,80.27
2019-01-21T12:16:16.019Z,79.40
2019-01-21T12:18:52.477Z,78.53
2019-01-21T12:21:40.695Z,85.63
2019-01-21T12:24:14.046Z,73.77
2019-01-21T12:26:59.766Z,91.07
2019-01-21T12:29:39.737Z,78.07
2019-01-21T12:32:25.151Z,79.17
2019-01-21T12:35:17.215Z,73.93
2019-01-21T12:37:53.659Z,89.37
2019-01-21T12:40:29.870Z,79.77
2019-01-21T12:43:08.403Z,87.13
2019-01-21T12:46:05.233Z,80.30
2019-01-21T12:48:46.816Z,77.47
2019-01-21T12:51:28.749Z,76.63
2019-01-21T12:54:23.716Z,76.33
2019-01-21T12:57:11.575Z,84.60
2019-01-21T12:59:47.640Z,77.90
2019-01-21T13:02:35.424Z,72.63
2019-01-21T13:05:26.998Z,77.30
2019-01-21T13:08:12.325Z,77.60
2019-01-21T13:10:45.790Z,73.60
2019-01-21T13:13:27.663Z,70.73
2019-01-21T13:16:12.299Z,76.57
2019-01-21T13:18:51.587Z,71.13
2019-01-21T13:21:52.765Z,66.87
2019-01-21T13:24:46.957Z,73.33
2019-01-21T13:27:49.394Z,72.03
2019-01-21T13:30:25.342Z,76.27
2019-01-21T13:33:07.246Z,82.27
2019-01-21T13:35:53.107Z,68.63
2019-01-21T13:38:45.458Z,69.03
2019-01-21T13:41:27.205Z,68.83
2019-01-21T13:44:12.098Z,80.23
2019-01-21T13:47:08.416Z,80.23
2019-01-21T13:49:50.678Z,82.37
2019-01-21T13:52:37.806Z,82.30
2019-01-21T13:55:17.050Z,87.80
2019-01-21T13:58:07.378Z,104.63
2019-01-21T14:00:55.953Z,85.47
2019-01-21T14:03:37.838Z,70.57
2019-01-21T14:06:18.114Z,90.17
2019-01-21T14:08:53.440Z,84.63
2019-01-21T14:11:35.854Z,82.80
2019-01-21T14:14:11.830Z,91.37
2019-01-21T14:16:54.298Z,96.57
2019-01-21T14:19:33.080Z,91.40
2019-01-21T14:22:20.024Z,98.00
2019-01-21T14:25:16.610Z,100.17
2019-01-21T14:28:25.746Z,92.07
2019-01-21T14:31:07.756Z,98.70
2019-01-21T14:33:58.980Z,103.63
2019-01-21T14:36:35.521Z,97.30
2019-01-21T14:39:09.550Z,93.50
2019-01-21T14:42:08.488Z,88.90
2019-01-21T14:45:04.151Z,85.87
2019-01-21T14:47:40.129Z,89.20
2019-01-21T14:50:35.829Z,93.03
2019-01-21T14:53:18.218Z,80.13
2019-01-21T14:55:54.462Z,87.63
2019-01-21T14:58:27.839Z,100.60
2019-01-21T15:01:16.186Z,96.60
2019-01-21T15:03:51.857Z,91.47
2019-01-21T15:06:39.799Z,96.23
2019-01-21T15:09:30.551Z,91.97
2019-01-21T15:12:22.402Z,91.77
2019-01-21T15:15:29.772Z,97.60
2019-01-21T15:18:22.927Z,92.13
2019-01-21T15:21:11.500Z,103.90
2019-01-21T15:24:12.472Z,93.23
2019-01-21T15:27:00.594Z,100.57
2019-01-21T15:29:39.690Z,99.97
2019-01-21T15:32:36.796Z,102.73
2019-01-21T15:35:12.700Z,107.33
2019-01-21T15:38:06.770Z,102.77
2019-01-21T15:41:09.964Z,109.93
2019-01-21T15:43:43.086Z,108.70
2019-01-21T15:46:19.584Z,116.63
2019-01-21T15:48:54.327Z,105.23
2019-01-21T15:51:33.979Z,100.30
2019-01-21T15:54:32.580Z,112.93
2019-01-21T15:57:33.276Z,97.57
2019-01-21T16:00:27.226Z,104.40
2019-01-21T16:03:35.300Z,99.87
2019-01-21T16:06:21.202Z,103.90
2019-01-21T16:09:11.212Z,103.37
2019-01-21T16:11:56.955Z,108.60
2019-01-21T16:14:30.249Z,118.57
2019-01-21T16:17:06.610Z,111.00
2019-01-21T16:19:36.905Z,118.57
2019-01-21T16:22:18.687Z,115.93
2019-01-21T16:25:03.714Z,119.87
2019-01-21T16:27:39.376Z,112.13
2019-01-21T16:30:27.701Z,129.30
2019-01-21T16:33:09.840Z,109.03
2019-01-21T16:35:45.567Z,114.30
2019-01-21T16:38:18.383Z,111.03
2019-01-21T16:40:51.668Z,122.37
2019-01-21T16:43:21.431Z,102.77
2019-01-21T16:45:51.274Z,126.97
2019-01-21T16:48:21.279Z,102.50
2019-01-21T16:50:51.424Z,101.23
2019-01-21T16:53:21.715Z,105.47
2019-01-21T16:55:51.759Z,92.67
2019-01-21T16:58:21.587Z,99.93
2019-01-21T17:00:51.289Z,95.73
2019-01-21T17:03:21.524Z,77.50
2019-01-21T17:05:51.446Z,109.33
2019-01-21T17:08:21.512Z,81.57
2019-01-21T17:10:51.836Z,94.87
2019-01-21T17:13:22.707Z,88.43
2019-01-21T17:15:52.835Z,81.07
2019-01-21T17:18:22.702Z,95.13
2019-01-21T17:20:57.078Z,96.93
2019-01-21T17:23:28.224Z,88.30
2019-01-21T17:26:20.627Z,84.80
2019-01-21T17:29:02.784Z,87.43
2019-01-21T17:31:45.752Z,93.60
2019-01-21T17:34:33.742Z,83.37
2019-01-21T17:37:16.496Z,145.80
2019-01-21T17:40:00.223Z,112.83
2019-01-21T17:42:43.746Z,110.53
2019-01-21T17:45:19.321Z,124.57
2019-01-21T17:48:07.835Z,143.20
2019-01-21T17:50:37.751Z,128.73
2019-01-21T17:53:14.491Z,116.80
2019-01-21T17:55:44.369Z,109.37
2019-01-21T17:58:15.976Z,132.07
2019-01-21T18:00:45.835Z,114.63
2019-01-21T18:03:20.753Z,124.97
2019-01-21T18:06:36.548Z,141.60
2019-01-21T18:09:28.414Z,123.47
2019-01-21T18:12:01.585Z,118.60
2019-01-21T18:14:37.812Z,145.57
2019-01-21T18:17:08.378Z,133.57
2019-01-21T18:19:43.594Z,125.63
2019-01-21T18:22:20.370Z,162.73
2019-01-21T18:24:54.246Z,120.53
2019-01-21T18:27:27.531Z,140.87
2019-01-21T18:29:59.294Z,138.63
2019-01-21T18:32:33.536Z,121.60
2019-01-21T18:35:09.542Z,140.93
2019-01-21T18:37:43.006Z,158.52
2019-01-21T18:40:20.617Z,135.20
2019-01-21T18:43:09.765Z,130.27
2019-01-21T18:45:42.398Z,159.50
2019-01-21T18:48:16.638Z,168.43
2019-01-21T18:51:09.365Z,173.60
2019-01-21T18:54:03.025Z,148.67
2019-01-21T18:56:46.157Z,131.70
2019-01-21T18:59:16.866Z,148.30
2019-01-21T19:01:46.922Z,186.57
2019-01-21T19:04:19.171Z,174.83
2019-01-21T19:06:49.351Z,137.27
2019-01-21T19:09:19.592Z,140.20
2019-01-21T19:11:49.653Z,139.93
2019-01-21T19:14:23.708Z,137.50
2019-01-21T19:16:54.190Z,151.77
2019-01-21T19:19:24.417Z,128.50
2019-01-21T19:21:54.440Z,164.47
2019-01-21T19:24:24.370Z,147.27
2019-01-21T19:26:54.252Z,153.40
2019-01-21T19:29:25.003Z,154.17
2019-01-21T19:31:55.083Z,158.33
2019-01-21T19:34:25.335Z,147.27
2019-01-21T19:36:55.607Z,145.57
2019-01-21T19:39:26.313Z,141.70
2019-01-21T19:41:56.568Z,169.97
2019-01-21T19:44:26.925Z,139.33
2019-01-21T19:46:57.559Z,148.70
2019-01-21T19:49:28.351Z,170.57
2019-01-21T19:52:00.473Z,123.67
2019-01-21T19:54:30.533Z,114.67
2019-01-21T19:57:03.714Z,120.47
2019-01-21T19:59:33.504Z,128.00
2019-01-21T20:02:03.282Z,109.27
2019-01-21T20:04:59.739Z,122.00
2019-01-21T20:07:45.724Z,119.70
2019-01-21T20:10:25.861Z,122.77
2019-01-21T20:13:04.903Z,138.07
2019-01-21T20:15:39.679Z,141.70
2019-01-21T20:18:11.543Z,138.37
2019-01-21T20:20:46.806Z,142.27
2019-01-21T20:23:20.720Z,137.10
2019-01-21T20:25:57.138Z,119.23
2019-01-21T20:28:28.728Z,127.30
2019-01-21T20:31:00.258Z,154.70
2019-01-21T20:33:31.955Z,161.37
2019-01-21T20:38:53.708Z,147.43
2019-01-21T20:41:25.153Z,162.70
2019-01-21T20:43:59.165Z,153.70
2019-01-21T20:50:26.870Z,163.47
2019-01-21T20:53:45.306Z,160.80
2019-01-21T21:00:04.535Z,131.33
2019-01-21T21:03:28.175Z,156.93
2019-01-21T21:06:38.637Z,170.80
2019-01-21T21:09:45.286Z,164.10
2019-01-21T21:12:51.663Z,153.50
2019-01-21T21:15:58.266Z,123.20
2019-01-21T21:19:11.757Z,149.93
2019-01-21T21:22:20.877Z,145.83
2019-01-21T21:25:28.361Z,154.03
2019-01-21T21:28:02.941Z,135.73
2019-01-21T21:30:33.625Z,121.80
2019-01-21T21:33:04.077Z,122.33
2019-01-21T21:35:33.888Z,137.83
2019-01-21T21:38:03.833Z,162.43
2019-01-21T21:40:34.976Z,141.00
2019-01-21T21:43:09.145Z,139.93
2019-01-21T21:45:43.756Z,149.60
2019-01-21T21:48:14.572Z,137.07
2019-01-21T21:50:44.778Z,133.53
2019-01-21T21:53:14.752Z,137.73
2019-01-21T21:55:53.933Z,141.87
2019-01-21T21:58:25.916Z,130.63
2019-01-21T22:00:55.661Z,137.10
2019-01-21T22:03:25.630Z,177.83
2019-01-21T22:05:55.535Z,163.97
2019-01-21T22:08:25.672Z,140.27
2019-01-21T22:10:55.618Z,178.53
2019-01-21T22:13:25.425Z,148.53
2019-01-21T22:15:55.256Z,167.40
2019-01-21T22:18:25.401Z,164.43
2019-01-21T22:20:55.595Z,170.93
2019-01-21T22:23:25.859Z,255.30
2019-01-21T22:25:56.112Z,161.90
2019-01-21T22:28:25.902Z,138.27
2019-01-21T22:30:56.573Z,162.30
2019-01-21T22:33:26.510Z,146.77
2019-01-21T22:35:56.623Z,145.27
2019-01-21T22:38:26.779Z,149.37
2019-01-21T22:40:59.011Z,164.27
2019-01-21T22:43:29.269Z,155.20
2019-01-21T22:45:59.564Z,132.13
2019-01-21T22:48:30.220Z,137.10
2019-01-21T22:51:00.508Z,178.63
2019-01-21T22:53:30.526Z,164.20
2019-01-21T22:56:00.731Z,148.43
2019-01-21T22:58:30.752Z,177.07
2019-01-21T23:01:05.628Z,147.00
2019-01-21T23:03:35.480Z,223.40
2019-01-21T23:06:07.297Z,160.10
2019-01-21T23:08:37.599Z,194.73
2019-01-21T23:11:07.771Z,164.23
2019-01-21T23:13:38.846Z,160.20
2019-01-21T23:16:12.827Z,147.03
2019-01-21T23:18:42.708Z,159.83
2019-01-21T23:21:12.523Z,163.63
2019-01-21T23:23:43.219Z,234.87
2019-01-21T23:26:13.340Z,219.27
2019-01-21T23:28:43.325Z,144.10
2019-01-21T23:31:13.192Z,144.43
2019-01-21T23:33:43.474Z,123.93
2019-01-21T23:36:13.551Z,134.33
2019-01-21T23:38:43.458Z,139.47
2019-01-21T23:41:13.497Z,167.97
2019-01-21T23:43:43.165Z,154.97
2019-01-21T23:46:12.882Z,144.43
2019-01-21T23:48:42.744Z,107.70
2019-01-21T23:51:13.668Z,158.17
2019-01-21T23:53:43.675Z,110.73
2019-01-21T23:56:13.496Z,127.80
2019-01-21T23:58:44.143Z,175.70
